createdAt,value
2018-02-12T00:02:17.110Z,19.63
2018-02-12T00:04:43.065Z,19.69
2018-02-12T00:07:09.135Z,19.66
2018-02-12T00:09:35.157Z,19.68
2018-02-12T00:12:01.078Z,19.64
2018-02-12T00:14:27.029Z,19.64
2018-02-12T00:16:53.005Z,19.63
2018-02-12T00:19:18.937Z,19.64
2018-02-12T00:21:44.949Z,19.56
2018-02-12T00:24:10.906Z,19.57
2018-02-12T00:26:36.856Z,19.51
2018-02-12T00:29:02.830Z,19.53
2018-02-12T00:31:28.782Z,19.54
2018-02-12T00:33:54.737Z,19.57
2018-02-12T00:36:20.678Z,19.63
2018-02-12T00:38:46.640Z,19.58
2018-02-12T00:41:13.152Z,19.53
2018-02-12T00:43:39.104Z,19.54
2018-02-12T00:46:05.049Z,19.56
2018-02-12T00:48:31.028Z,19.51
2018-02-12T00:50:56.967Z,19.52
2018-02-12T00:53:22.913Z,19.52
2018-02-12T00:55:48.886Z,19.47
2018-02-12T00:58:14.846Z,19.46
2018-02-12T01:00:40.869Z,19.47
2018-02-12T01:03:06.806Z,19.45
2018-02-12T01:05:32.752Z,19.49
2018-02-12T01:07:58.697Z,19.53
2018-02-12T01:10:24.706Z,19.56
2018-02-12T01:12:50.650Z,19.55
2018-02-12T01:15:16.665Z,19.40
2018-02-12T01:17:42.616Z,19.43
2018-02-12T01:20:08.574Z,19.36
2018-02-12T01:22:34.533Z,19.38
2018-02-12T01:25:00.502Z,19.42
2018-02-12T01:27:26.457Z,19.52
2018-02-12T01:29:52.406Z,19.35
2018-02-12T01:32:18.373Z,19.35
2018-02-12T01:34:44.317Z,19.44
2018-02-12T01:37:10.260Z,19.40
2018-02-12T01:39:36.206Z,19.38
2018-02-12T01:42:02.149Z,19.34
2018-02-12T01:44:28.177Z,19.34
2018-02-12T01:46:54.120Z,19.33
2018-02-12T01:49:20.086Z,19.34
2018-02-12T01:51:46.028Z,19.34
2018-02-12T01:54:12.056Z,19.33
2018-02-12T01:56:38.018Z,19.30
2018-02-12T01:59:03.965Z,19.31
2018-02-12T02:01:29.905Z,19.28
2018-02-12T02:03:55.856Z,19.25
2018-02-12T02:06:21.824Z,19.23
2018-02-12T02:08:47.792Z,19.28
2018-02-12T02:11:13.744Z,19.26
2018-02-12T02:13:39.698Z,19.27
2018-02-12T02:16:05.644Z,19.23
2018-02-12T02:18:31.633Z,19.28
2018-02-12T02:20:57.596Z,19.31
2018-02-12T02:23:23.556Z,19.29
2018-02-12T02:25:49.613Z,19.27
2018-02-12T02:28:15.566Z,19.22
2018-02-12T02:30:41.526Z,19.25
2018-02-12T02:33:07.481Z,19.29
2018-02-12T02:35:33.433Z,19.36
2018-02-12T02:37:59.401Z,19.22
2018-02-12T02:40:25.342Z,19.24
2018-02-12T02:42:51.289Z,19.20
2018-02-12T02:45:17.226Z,19.17
2018-02-12T02:47:43.261Z,19.19
2018-02-12T02:50:09.218Z,19.19
2018-02-12T02:52:35.166Z,19.11
2018-02-12T02:55:01.108Z,19.19
2018-02-12T02:57:27.057Z,19.20
2018-02-12T02:59:53.042Z,19.19
2018-02-12T03:02:19.140Z,19.18
2018-02-12T03:04:45.092Z,19.16
2018-02-12T03:07:11.032Z,19.24
2018-02-12T03:09:36.977Z,19.20
2018-02-12T03:12:02.937Z,19.20
2018-02-12T03:14:28.881Z,19.23
2018-02-12T03:16:54.854Z,19.20
2018-02-12T03:19:20.796Z,19.13
2018-02-12T03:21:46.737Z,19.11
2018-02-12T03:24:12.694Z,19.13
2018-02-12T03:26:38.630Z,19.19
2018-02-12T03:29:04.570Z,19.17
2018-02-12T03:31:30.533Z,19.16
2018-02-12T03:33:56.498Z,19.18
2018-02-12T03:36:22.445Z,19.10
2018-02-12T03:38:48.437Z,19.14
2018-02-12T03:41:14.398Z,19.16
2018-02-12T03:43:40.340Z,19.18
2018-02-12T03:46:06.329Z,19.40
2018-02-12T03:48:32.277Z,19.51
2018-02-12T03:50:58.221Z,19.67
2018-02-12T03:53:24.258Z,19.88
2018-02-12T03:55:50.205Z,19.89
2018-02-12T03:58:16.165Z,19.80
2018-02-12T04:00:42.128Z,19.78
2018-02-12T04:03:08.113Z,19.87
2018-02-12T04:05:34.181Z,19.88
2018-02-12T04:08:00.141Z,20.03
2018-02-12T04:10:26.172Z,19.86
2018-02-12T04:12:52.121Z,19.94
2018-02-12T04:15:18.077Z,20.09
2018-02-12T04:17:44.026Z,20.03
2018-02-12T04:20:09.981Z,20.06
2018-02-12T04:22:36.026Z,20.07
2018-02-12T04:25:01.990Z,20.16
2018-02-12T04:27:27.941Z,20.07
2018-02-12T04:29:53.893Z,20.08
2018-02-12T04:32:19.836Z,20.09
2018-02-12T04:34:45.797Z,20.11
2018-02-12T04:37:11.752Z,20.08
2018-02-12T04:39:37.688Z,20.04
2018-02-12T04:42:03.661Z,20.00
2018-02-12T04:44:29.598Z,20.00
2018-02-12T04:46:55.558Z,19.97
2018-02-12T04:49:21.508Z,20.03
2018-02-12T04:51:47.486Z,19.98
2018-02-12T04:54:13.420Z,19.84
2018-02-12T04:56:39.381Z,19.84
2018-02-12T04:59:05.321Z,19.80
2018-02-12T05:01:31.370Z,19.86
2018-02-12T05:03:57.336Z,19.93
2018-02-12T05:06:23.280Z,19.79
2018-02-12T05:08:49.240Z,19.80
2018-02-12T05:11:15.198Z,19.89
2018-02-12T05:13:41.194Z,19.87
2018-02-12T05:16:07.133Z,19.84
2018-02-12T05:18:33.069Z,19.75
2018-02-12T05:20:59.010Z,19.76
2018-02-12T05:23:24.969Z,19.82
2018-02-12T05:25:50.918Z,19.83
2018-02-12T05:28:16.860Z,19.83
2018-02-12T05:30:42.809Z,19.81
2018-02-12T05:33:08.817Z,19.92
2018-02-12T05:35:34.773Z,19.86
2018-02-12T05:38:00.776Z,19.87
2018-02-12T05:40:26.759Z,19.86
2018-02-12T05:42:52.697Z,19.91
2018-02-12T05:45:18.637Z,19.93
2018-02-12T05:47:44.589Z,19.90
2018-02-12T05:50:10.530Z,19.95
2018-02-12T05:52:36.483Z,19.93
2018-02-12T05:55:02.442Z,19.80
2018-02-12T05:57:28.386Z,19.83
2018-02-12T05:59:54.352Z,19.81
2018-02-12T06:02:20.325Z,19.78
2018-02-12T06:04:46.284Z,19.84
2018-02-12T06:07:12.518Z,19.84
2018-02-12T06:09:38.470Z,19.79
2018-02-12T06:12:04.417Z,19.69
2018-02-12T06:14:30.349Z,19.86
2018-02-12T06:16:56.308Z,19.94
2018-02-12T06:19:22.265Z,19.80
2018-02-12T06:21:48.197Z,19.86
2018-02-12T06:24:14.145Z,19.91
2018-02-12T06:26:40.205Z,19.92
2018-02-12T06:29:06.149Z,19.88
2018-02-12T06:31:32.188Z,19.93
2018-02-12T06:33:58.137Z,19.91
2018-02-12T06:36:24.069Z,19.94
2018-02-12T06:38:50.013Z,19.90
2018-02-12T06:41:15.952Z,19.84
2018-02-12T06:43:41.896Z,19.85
2018-02-12T06:46:07.837Z,19.93
2018-02-12T06:48:33.781Z,19.86
2018-02-12T06:50:59.721Z,19.88
2018-02-12T06:53:25.672Z,19.84
2018-02-12T06:55:51.608Z,19.86
2018-02-12T06:58:17.588Z,19.85
2018-02-12T07:00:43.573Z,19.91
2018-02-12T07:03:09.511Z,19.91
2018-02-12T07:05:35.461Z,19.86
2018-02-12T07:08:01.429Z,19.97
2018-02-12T07:10:27.435Z,19.91
2018-02-12T07:12:53.378Z,19.91
2018-02-12T07:15:19.321Z,19.77
2018-02-12T07:17:45.275Z,19.91
2018-02-12T07:20:11.258Z,19.93
2018-02-12T07:22:37.217Z,19.98
2018-02-12T07:25:03.166Z,19.90
2018-02-12T07:27:29.106Z,19.92
2018-02-12T07:29:55.054Z,19.97
2018-02-12T07:32:21.002Z,19.93
2018-02-12T07:34:46.974Z,19.90
2018-02-12T07:37:12.910Z,19.86
2018-02-12T07:39:38.885Z,19.91
2018-02-12T07:42:04.951Z,19.91
2018-02-12T07:44:30.929Z,19.89
2018-02-12T07:46:56.903Z,19.92
2018-02-12T07:49:22.853Z,20.04
2018-02-12T07:51:48.829Z,19.95
2018-02-12T07:54:14.775Z,19.96
2018-02-12T07:56:40.775Z,19.80
2018-02-12T07:59:06.734Z,19.94
2018-02-12T08:01:32.702Z,19.90
2018-02-12T08:03:58.644Z,19.85
2018-02-12T08:06:24.663Z,20.01
2018-02-12T08:08:50.559Z,19.87
2018-02-12T08:11:16.526Z,19.96
2018-02-12T08:13:42.461Z,19.96
2018-02-12T08:16:08.438Z,19.88
2018-02-12T08:18:34.490Z,19.95
2018-02-12T08:21:00.441Z,19.95
2018-02-12T08:23:26.469Z,19.78
2018-02-12T08:25:52.410Z,19.80
2018-02-12T08:28:18.425Z,19.79
2018-02-12T08:30:44.433Z,19.72
2018-02-12T08:33:10.475Z,19.91
2018-02-12T08:35:36.429Z,19.87
2018-02-12T08:38:02.366Z,19.90
2018-02-12T08:40:28.318Z,19.84
2018-02-12T08:42:54.286Z,19.89
2018-02-12T08:45:20.308Z,19.96
2018-02-12T08:47:46.364Z,19.96
2018-02-12T08:50:12.407Z,19.90
2018-02-12T08:52:38.492Z,19.89
2018-02-12T08:55:04.410Z,19.93
2018-02-12T08:57:30.353Z,19.89
2018-02-12T08:59:56.385Z,19.94
2018-02-12T09:02:22.414Z,19.98
2018-02-12T09:04:48.367Z,20.03
2018-02-12T09:07:14.410Z,20.01
2018-02-12T09:09:40.383Z,20.03
2018-02-12T09:12:06.325Z,19.96
2018-02-12T09:14:32.257Z,20.18
2018-02-12T09:16:58.200Z,20.05
2018-02-12T09:19:24.229Z,20.01
2018-02-12T09:21:50.169Z,20.01
2018-02-12T09:24:16.113Z,20.04
2018-02-12T09:26:42.077Z,20.03
2018-02-12T09:29:08.021Z,20.07
2018-02-12T09:31:33.989Z,20.10
2018-02-12T09:33:59.930Z,19.98
2018-02-12T09:36:25.945Z,19.97
2018-02-12T09:38:51.864Z,19.90
2018-02-12T09:41:17.801Z,19.93
2018-02-12T09:43:43.759Z,19.95
2018-02-12T09:46:09.700Z,19.80
2018-02-12T09:48:35.652Z,19.95
2018-02-12T09:51:01.663Z,19.94
2018-02-12T09:53:27.612Z,19.88
2018-02-12T09:55:53.561Z,19.86
2018-02-12T09:58:19.545Z,19.84
2018-02-12T10:00:45.566Z,19.93
2018-02-12T10:03:11.634Z,19.93
2018-02-12T10:05:37.573Z,19.98
2018-02-12T10:08:03.569Z,20.01
2018-02-12T10:10:29.536Z,19.96
2018-02-12T10:12:55.516Z,19.99
2018-02-12T10:15:21.635Z,20.01
2018-02-12T10:17:47.602Z,20.33
2018-02-12T10:20:13.619Z,20.42
2018-02-12T10:22:39.581Z,20.57
2018-02-12T10:25:05.543Z,20.55
2018-02-12T10:27:31.524Z,20.52
2018-02-12T10:29:57.471Z,20.45
2018-02-12T10:32:23.456Z,20.44
2018-02-12T10:34:49.498Z,20.44
2018-02-12T10:37:15.561Z,20.53
2018-02-12T10:39:41.639Z,20.48
2018-02-12T10:42:07.721Z,20.46
2018-02-12T10:44:33.701Z,20.53
2018-02-12T10:46:59.661Z,20.42
2018-02-12T10:49:25.645Z,20.34
2018-02-12T10:51:51.596Z,20.39
2018-02-12T10:54:17.563Z,20.41
2018-02-12T10:56:43.523Z,20.41
2018-02-12T10:59:09.492Z,20.41
2018-02-12T11:01:35.438Z,20.31
2018-02-12T11:04:01.395Z,20.32
2018-02-12T11:06:27.381Z,20.32
2018-02-12T11:08:53.339Z,20.23
2018-02-12T11:11:19.411Z,20.20
2018-02-12T11:13:45.402Z,20.15
2018-02-12T11:16:11.337Z,20.22
2018-02-12T11:18:37.285Z,20.34
2018-02-12T11:21:03.335Z,20.23
2018-02-12T11:23:29.330Z,20.26
2018-02-12T11:25:56.376Z,20.30
2018-02-12T11:28:22.332Z,20.36
2018-02-12T11:30:48.307Z,20.43
2018-02-12T11:33:14.283Z,20.39
2018-02-12T11:35:40.239Z,20.27
2018-02-12T11:38:06.198Z,20.43
2018-02-12T11:40:32.252Z,20.41
2018-02-12T11:42:58.199Z,20.45
2018-02-12T11:45:24.156Z,20.38
2018-02-12T11:47:50.105Z,20.39
2018-02-12T11:50:16.036Z,20.36
2018-02-12T11:52:42.017Z,20.37
2018-02-12T11:55:07.993Z,20.37
2018-02-12T11:57:33.968Z,20.35
2018-02-12T11:59:59.966Z,20.39
2018-02-12T12:02:25.916Z,20.43
2018-02-12T12:04:51.882Z,20.39
2018-02-12T12:07:17.834Z,20.46
2018-02-12T12:09:43.886Z,20.42
2018-02-12T12:12:09.827Z,20.38
2018-02-12T12:14:35.777Z,20.39
2018-02-12T12:17:01.762Z,20.39
2018-02-12T12:19:27.704Z,20.37
2018-02-12T12:21:53.660Z,20.30
2018-02-12T12:24:19.593Z,20.33
2018-02-12T12:26:45.564Z,20.36
2018-02-12T12:29:11.525Z,20.35
2018-02-12T12:31:37.558Z,20.46
2018-02-12T12:34:04.156Z,20.43
2018-02-12T12:36:30.117Z,20.41
2018-02-12T12:38:56.056Z,20.41
2018-02-12T12:41:22.021Z,20.40
2018-02-12T12:43:47.975Z,20.46
2018-02-12T12:46:13.942Z,20.47
2018-02-12T12:48:39.910Z,20.42
2018-02-12T12:51:05.865Z,20.42
2018-02-12T12:53:31.853Z,20.35
2018-02-12T12:55:57.817Z,20.42
2018-02-12T12:58:23.770Z,20.49
2018-02-12T13:00:49.740Z,20.37
2018-02-12T13:03:15.696Z,20.37
2018-02-12T13:05:41.744Z,20.35
2018-02-12T13:08:07.688Z,20.38
2018-02-12T13:10:33.640Z,20.42
2018-02-12T13:12:59.605Z,20.33
2018-02-12T13:15:25.562Z,20.38
2018-02-12T13:17:51.573Z,20.42
2018-02-12T13:20:17.541Z,20.37
2018-02-12T13:22:43.518Z,20.38
2018-02-12T13:25:09.479Z,20.41
2018-02-12T13:27:35.441Z,20.51
2018-02-12T13:30:01.422Z,20.55
2018-02-12T13:32:27.377Z,20.35
2018-02-12T13:34:53.337Z,20.35
2018-02-12T13:37:19.295Z,20.29
2018-02-12T13:39:45.276Z,20.34
2018-02-12T13:42:11.257Z,20.29
2018-02-12T13:44:37.237Z,20.33
2018-02-12T13:47:04.063Z,20.22
2018-02-12T13:49:30.042Z,20.17
2018-02-12T13:51:56.017Z,20.27
2018-02-12T13:54:21.977Z,20.29
2018-02-12T13:56:47.956Z,20.21
2018-02-12T13:59:13.914Z,20.26
2018-02-12T14:01:39.866Z,20.29
2018-02-12T14:04:05.827Z,20.26
2018-02-12T14:06:31.801Z,20.33
2018-02-12T14:08:57.769Z,20.28
2018-02-12T14:11:23.738Z,20.21
2018-02-12T14:13:49.737Z,20.27
2018-02-12T14:16:15.713Z,20.20
2018-02-12T14:18:41.673Z,20.20
2018-02-12T14:21:07.652Z,20.17
2018-02-12T14:23:33.616Z,20.17
2018-02-12T14:25:59.578Z,20.17
2018-02-12T14:28:25.549Z,20.03
2018-02-12T14:30:51.500Z,20.11
2018-02-12T14:33:17.482Z,20.11
2018-02-12T14:35:43.552Z,20.17
2018-02-12T14:38:09.496Z,20.13
2018-02-12T14:40:35.453Z,20.09
2018-02-12T14:43:01.426Z,20.06
2018-02-12T14:45:27.394Z,20.30
2018-02-12T14:47:53.350Z,20.27
2018-02-12T14:50:19.339Z,20.31
2018-02-12T14:52:45.287Z,20.27
2018-02-12T14:55:11.222Z,20.27
2018-02-12T14:57:37.301Z,20.21
2018-02-12T15:00:03.242Z,20.21
2018-02-12T15:02:29.193Z,20.14
2018-02-12T15:04:55.247Z,20.04
2018-02-12T15:07:21.205Z,20.08
2018-02-12T15:09:47.163Z,20.02
2018-02-12T15:12:13.129Z,19.98
2018-02-12T15:14:39.103Z,19.99
2018-02-12T15:17:05.073Z,19.95
2018-02-12T15:19:31.072Z,19.96
2018-02-12T15:21:57.505Z,19.92
2018-02-12T15:24:23.538Z,19.94
2018-02-12T15:26:49.482Z,19.94
2018-02-12T15:29:15.438Z,19.91
2018-02-12T15:31:41.409Z,19.89
2018-02-12T15:34:07.364Z,19.84
2018-02-12T15:36:33.636Z,19.81
2018-02-12T15:38:59.569Z,19.76
2018-02-12T15:41:25.528Z,19.84
2018-02-12T15:43:51.486Z,19.77
2018-02-12T15:46:17.449Z,19.92
2018-02-12T15:48:43.398Z,19.88
2018-02-12T15:51:09.346Z,19.81
2018-02-12T15:53:35.296Z,19.90
2018-02-12T15:56:01.244Z,19.89
2018-02-12T15:58:27.215Z,19.79
2018-02-12T16:00:53.157Z,19.88
2018-02-12T16:03:19.127Z,20.06
2018-02-12T16:05:45.070Z,20.05
2018-02-12T16:08:11.078Z,19.97
2018-02-12T16:10:37.113Z,19.96
2018-02-12T16:13:03.061Z,19.94
2018-02-12T16:15:29.006Z,19.88
2018-02-12T16:17:54.985Z,19.83
2018-02-12T16:20:20.944Z,19.87
2018-02-12T16:22:46.918Z,19.85
2018-02-12T16:25:12.873Z,19.80
2018-02-12T16:27:38.872Z,19.84
2018-02-12T16:30:04.821Z,19.90
2018-02-12T16:32:30.848Z,19.87
2018-02-12T16:34:56.817Z,19.84
2018-02-12T16:37:22.781Z,19.80
2018-02-12T16:39:48.724Z,19.89
2018-02-12T16:42:14.686Z,19.98
2018-02-12T16:44:40.628Z,19.96
2018-02-12T16:47:06.598Z,19.92
2018-02-12T16:49:32.557Z,19.94
2018-02-12T16:51:58.566Z,19.86
2018-02-12T16:54:24.513Z,19.85
2018-02-12T16:56:50.489Z,19.86
2018-02-12T16:59:16.451Z,19.85
2018-02-12T17:01:42.433Z,19.81
2018-02-12T17:04:08.396Z,19.81
2018-02-12T17:06:34.357Z,19.89
2018-02-12T17:09:00.334Z,19.91
2018-02-12T17:11:26.277Z,19.91
2018-02-12T17:13:52.243Z,19.94
2018-02-12T17:16:18.241Z,19.97
2018-02-12T17:18:44.189Z,19.96
2018-02-12T17:21:10.155Z,19.94
2018-02-12T17:23:36.118Z,19.92
2018-02-12T17:26:02.110Z,19.90
2018-02-12T17:28:28.057Z,19.95
2018-02-12T17:30:54.040Z,19.89
2018-02-12T17:33:20.001Z,19.95
2018-02-12T17:35:45.959Z,19.96
2018-02-12T17:38:11.905Z,19.86
2018-02-12T17:40:37.871Z,19.81
2018-02-12T17:43:03.835Z,19.86
2018-02-12T17:45:29.857Z,19.90
2018-02-12T17:47:55.821Z,19.86
2018-02-12T17:50:21.824Z,19.90
2018-02-12T17:52:47.768Z,19.88
2018-02-12T17:55:13.710Z,19.95
2018-02-12T17:57:39.681Z,19.85
2018-02-12T18:00:05.654Z,19.92
2018-02-12T18:02:31.622Z,19.99
2018-02-12T18:04:57.595Z,20.08
2018-02-12T18:07:23.551Z,20.00
2018-02-12T18:09:49.504Z,20.00
2018-02-12T18:12:15.484Z,20.00
2018-02-12T18:14:41.424Z,20.06
2018-02-12T18:17:07.387Z,19.99
2018-02-12T18:19:33.349Z,19.96
2018-02-12T18:21:59.322Z,19.98
2018-02-12T18:24:25.273Z,19.95
2018-02-12T18:26:51.294Z,19.96
2018-02-12T18:29:17.278Z,19.89
2018-02-12T18:31:43.246Z,19.89
2018-02-12T18:34:09.194Z,19.87
2018-02-12T18:36:35.165Z,19.93
2018-02-12T18:39:01.114Z,19.94
2018-02-12T18:41:27.168Z,19.90
2018-02-12T18:43:53.161Z,19.93
2018-02-12T18:46:19.100Z,19.88
2018-02-12T18:48:45.037Z,19.87
2018-02-12T18:51:11.124Z,19.90
2018-02-12T18:53:37.082Z,19.89
2018-02-12T18:56:03.057Z,19.84
2018-02-12T18:58:29.004Z,19.86
2018-02-12T19:00:54.950Z,19.78
2018-02-12T19:03:20.893Z,19.95
2018-02-12T19:05:46.845Z,19.81
2018-02-12T19:08:12.810Z,19.80
2018-02-12T19:10:38.790Z,19.86
2018-02-12T19:13:04.800Z,19.87
2018-02-12T19:15:30.736Z,19.81
2018-02-12T19:17:56.694Z,19.87
2018-02-12T19:20:22.722Z,19.82
2018-02-12T19:22:48.731Z,19.79
2018-02-12T19:25:14.679Z,19.76
2018-02-12T19:27:40.649Z,19.78
2018-02-12T19:30:06.607Z,19.83
2018-02-12T19:32:32.565Z,19.99
2018-02-12T19:34:58.521Z,20.00
2018-02-12T19:37:24.497Z,19.95
2018-02-12T19:39:50.476Z,19.95
2018-02-12T19:42:16.477Z,19.90
2018-02-12T19:44:42.446Z,19.99
2018-02-12T19:47:08.397Z,19.92
2018-02-12T19:49:34.393Z,19.96
2018-02-12T19:52:00.334Z,19.87
2018-02-12T19:54:26.301Z,19.85
2018-02-12T19:56:52.306Z,19.88
2018-02-12T19:59:18.240Z,19.91
2018-02-12T20:01:44.221Z,19.86
2018-02-12T20:04:10.173Z,19.87
2018-02-12T20:06:36.142Z,19.90
2018-02-12T20:09:02.099Z,19.87
2018-02-12T20:11:28.078Z,19.85
2018-02-12T20:13:54.014Z,19.81
2018-02-12T20:16:19.965Z,19.85
2018-02-12T20:18:45.912Z,19.79
2018-02-12T20:21:11.878Z,19.80
2018-02-12T20:23:37.825Z,19.84
2018-02-12T20:26:03.787Z,19.80
2018-02-12T20:28:29.770Z,20.03
2018-02-12T20:30:55.747Z,19.98
2018-02-12T20:33:21.722Z,19.99
2018-02-12T20:35:47.677Z,20.06
2018-02-12T20:38:13.630Z,19.96
2018-02-12T20:40:39.583Z,19.90
2018-02-12T20:43:05.544Z,19.89
2018-02-12T20:45:31.506Z,19.87
2018-02-12T20:47:57.444Z,19.91
2018-02-12T20:50:23.422Z,19.86
2018-02-12T20:52:49.597Z,19.81
2018-02-12T20:55:15.569Z,19.79
2018-02-12T20:57:41.546Z,19.87
2018-02-12T21:00:07.505Z,19.83
2018-02-12T21:02:33.514Z,19.83
2018-02-12T21:04:59.471Z,19.81
2018-02-12T21:07:25.481Z,19.82
2018-02-12T21:09:51.433Z,19.79
2018-02-12T21:12:17.373Z,19.79
2018-02-12T21:14:43.338Z,19.73
2018-02-12T21:17:09.313Z,19.76
2018-02-12T21:19:35.277Z,19.83
2018-02-12T21:22:01.250Z,19.83
2018-02-12T21:24:27.223Z,19.81
2018-02-12T21:26:53.169Z,19.80
2018-02-12T21:29:19.131Z,19.77
2018-02-12T21:31:45.129Z,19.76
2018-02-12T21:34:11.075Z,19.70
2018-02-12T21:36:37.037Z,19.70
2018-02-12T21:39:02.986Z,19.67
2018-02-12T21:41:28.947Z,19.65
2018-02-12T21:43:54.939Z,19.71
2018-02-12T21:46:20.861Z,19.72
2018-02-12T21:48:46.822Z,19.63
2018-02-12T21:51:12.820Z,19.69
2018-02-12T21:53:38.825Z,19.66
2018-02-12T21:56:04.800Z,19.64
2018-02-12T21:58:30.743Z,19.64
2018-02-12T22:00:56.792Z,19.52
2018-02-12T22:03:22.744Z,19.53
2018-02-12T22:05:48.718Z,19.58
2018-02-12T22:08:14.682Z,19.60
2018-02-12T22:10:40.632Z,19.63
2018-02-12T22:13:06.574Z,19.58
2018-02-12T22:15:32.529Z,19.60
2018-02-12T22:17:58.528Z,19.59
2018-02-12T22:20:24.481Z,19.50
2018-02-12T22:22:50.439Z,19.53
2018-02-12T22:25:16.390Z,19.54
2018-02-12T22:27:42.355Z,19.60
2018-02-12T22:30:08.312Z,19.49
2018-02-12T22:32:34.286Z,19.52
2018-02-12T22:35:00.269Z,19.50
2018-02-12T22:37:26.244Z,19.47
2018-02-12T22:39:52.201Z,19.48
2018-02-12T22:42:18.191Z,19.52
2018-02-12T22:44:44.134Z,19.52
2018-02-12T22:47:10.105Z,19.53
2018-02-12T22:49:36.059Z,19.48
2018-02-12T22:52:02.053Z,19.47
2018-02-12T22:54:28.025Z,19.45
2018-02-12T22:56:54.007Z,19.45
2018-02-12T22:59:19.945Z,19.49
2018-02-12T23:01:45.911Z,19.46
2018-02-12T23:04:11.918Z,19.48
2018-02-12T23:06:37.868Z,19.48
2018-02-12T23:09:03.844Z,19.42
2018-02-12T23:11:29.795Z,19.44
2018-02-12T23:13:55.773Z,19.43
2018-02-12T23:16:21.714Z,19.44
2018-02-12T23:18:47.664Z,19.38
2018-02-12T23:21:13.597Z,19.35
2018-02-12T23:23:39.536Z,19.41
2018-02-12T23:26:05.485Z,19.38
2018-02-12T23:28:31.452Z,19.34
2018-02-12T23:30:57.422Z,19.38
2018-02-12T23:33:23.354Z,19.35
2018-02-12T23:35:49.302Z,19.34
2018-02-12T23:38:15.261Z,19.41
2018-02-12T23:40:41.208Z,19.35
2018-02-12T23:43:07.166Z,19.35
2018-02-12T23:45:33.124Z,19.31
2018-02-12T23:47:59.161Z,19.32
2018-02-12T23:50:25.137Z,19.36
2018-02-12T23:52:51.077Z,19.34
2018-02-12T23:55:17.038Z,19.35
2018-02-12T23:57:43.025Z,19.34
